Airfield :
LOGIN :

Register | Disclaimer

   EN    FR    IT 

 










Legend :    VFR   Marginal VFR   IFR   Intensive IFR   Very Intensive IFR
Visi :
Ceiling :
>= 8 km
>= 3000ft
5 to 8 km
1000 to 3000 ft
1500m to 5 km
500 to 1000 ft
800 to 1500m
200 to 500 ft
< 800m
< 200 ft
Symbols :   Thunderstorms  Fog  Heavy snow  Heavy precipitations  Wind > 20 kt
SIGMETs :     Misc.  Thunderstorms  Icing  Turbulence  Mountain Waves  Volcanic Ashes







- Airport Elevation : 144 ft
- IATA code : PGF
- Download approach charts


LFMP - Perpignan

CURRENT METAR :
  • 290700Z AUTO 30019G30KT 9999 OVC090 19/09 Q1007 BECMG 28012KT

EXPIRED METARs :
  • 290630Z AUTO 30017KT 9999 OVC078 19/09 Q1007 NOSIG
  • 290600Z AUTO 30016KT 9999 BKN080 19/10 Q1007 TEMPO 32015G30KT
  • 290530Z AUTO 31016KT 280V340 9999 FEW082 18/09 Q1006 TEMPO 32015G30KT
  • 290500Z AUTO 30018G30KT CAVOK 18/09 Q1006 NOSIG
  • 290430Z AUTO 30017G27KT 280V340 CAVOK 18/10 Q1006 NOSIG

TAF TAF LFMP
Valid from the 29 at 03:00 until the 30 at 03:00 UTC


290200Z 2903/3003 28012KT CAVOK
TEMPO 2903/2907 32015G30KT
TEMPO 2913/2921 SHRA BKN020TCU
PROB30
TEMPO 2913/2919 VRB20G35KT 1200 TSRA BR BKN008CB
ATIS : +33 4 68 63 75 12
No reported NOTAMs for that airfield.
1 SIGMET reported for the Marseille FIR (LFMM) :
 
Severe turbulence
LFMM SIGMET 1 VALID 290530/290930 LFPW
LFMM MARSEILLE FIR/UIR SEV TURB FCST WI N4330 E00830 - N4315 E00945 - N4245 E00945 - N4230 E00830 SFC/FL050 STNR NC=



MET'MAP, your aeronautical weather chart ! - Copyright ORBIFLY December 2007 - Disclaimer

ORBIFLY MET'MAP TEAM :

Programming & Development : Alexandra Zaïnal
Concept & Development : Baudouin d'Aumeries
Co-Development & Prog : Marc-Olivier Méhu
Technical & hardware support : Manuel Goepfert

Contact : metmap@orbifly.com




SOURCES & CREDITS :

   NOAA